createdAt,value
2017-10-22T00:00:24.662Z,11.50
2017-10-22T00:02:52.979Z,11.40
2017-10-22T00:05:20.522Z,11.40
2017-10-22T00:07:48.043Z,11.30
2017-10-22T00:10:16.328Z,11.40
2017-10-22T00:12:44.642Z,11.50
2017-10-22T00:15:12.148Z,11.50
2017-10-22T00:17:39.692Z,11.40
2017-10-22T00:20:07.192Z,11.40
2017-10-22T00:22:35.461Z,11.10
2017-10-22T00:25:03.754Z,11.10
2017-10-22T00:27:32.026Z,11.20
2017-10-22T00:30:00.300Z,11.10
2017-10-22T00:32:28.615Z,11.20
2017-10-22T00:34:56.140Z,11.20
2017-10-22T00:37:23.672Z,11.20
2017-10-22T00:39:51.185Z,11.10
2017-10-22T00:42:18.692Z,11.20
2017-10-22T00:44:47.004Z,11.10
2017-10-22T00:47:14.514Z,11.10
2017-10-22T00:49:42.021Z,11.00
2017-10-22T00:52:10.324Z,11.00
2017-10-22T00:54:37.828Z,11.00
2017-10-22T00:57:06.109Z,11.00
2017-10-22T00:59:33.661Z,11.00
2017-10-22T01:02:01.173Z,11.10
2017-10-22T01:04:28.684Z,11.10
2017-10-22T01:06:56.216Z,11.10
2017-10-22T01:09:23.717Z,11.10
2017-10-22T01:11:51.984Z,11.10
2017-10-22T01:14:20.322Z,11.10
2017-10-22T01:16:47.838Z,11.00
2017-10-22T01:19:15.344Z,10.90
2017-10-22T01:21:42.893Z,10.90
2017-10-22T01:24:10.401Z,10.90
2017-10-22T01:26:37.917Z,10.90
2017-10-22T01:29:05.456Z,11.00
2017-10-22T01:31:32.974Z,11.00
2017-10-22T01:34:00.490Z,11.10
2017-10-22T01:36:28.033Z,11.10
2017-10-22T01:38:55.549Z,11.10
2017-10-22T01:41:23.069Z,11.00
2017-10-22T01:43:50.631Z,11.00
2017-10-22T01:46:18.600Z,11.00
2017-10-22T01:48:46.101Z,11.00
2017-10-22T01:51:13.638Z,10.90
2017-10-22T01:53:41.586Z,10.80
2017-10-22T01:56:09.088Z,10.90
2017-10-22T01:58:36.626Z,10.90
2017-10-22T02:01:04.133Z,10.90
2017-10-22T02:03:31.639Z,10.90
2017-10-22T02:05:59.184Z,10.90
2017-10-22T02:08:26.693Z,10.90
2017-10-22T02:10:54.198Z,10.90
2017-10-22T02:13:21.734Z,10.70
2017-10-22T02:15:50.005Z,10.80
2017-10-22T02:18:18.277Z,10.80
2017-10-22T02:20:46.589Z,10.90
2017-10-22T02:23:14.101Z,10.90
2017-10-22T02:25:41.621Z,10.80
2017-10-22T02:28:09.168Z,10.90
2017-10-22T02:30:36.692Z,10.80
2017-10-22T02:33:04.204Z,10.80
2017-10-22T02:35:31.753Z,10.80
2017-10-22T02:37:59.281Z,10.90
2017-10-22T02:40:26.797Z,10.80
2017-10-22T02:42:54.456Z,10.70
2017-10-22T02:45:21.968Z,10.80
2017-10-22T02:47:50.238Z,10.90
2017-10-22T02:50:18.543Z,10.90
2017-10-22T02:52:46.084Z,10.90
2017-10-22T02:55:13.597Z,10.80
2017-10-22T02:57:41.134Z,10.70
2017-10-22T03:00:08.651Z,10.80
2017-10-22T03:02:36.168Z,10.70
2017-10-22T03:05:04.286Z,10.80
2017-10-22T03:07:31.885Z,10.80
2017-10-22T03:09:59.408Z,10.80
2017-10-22T03:12:27.224Z,10.80
2017-10-22T03:14:55.086Z,10.70
2017-10-22T03:17:22.636Z,10.70
2017-10-22T03:19:50.183Z,10.70
2017-10-22T03:22:17.703Z,10.70
2017-10-22T03:24:45.984Z,10.70
2017-10-22T03:27:13.878Z,10.70
2017-10-22T03:29:41.428Z,10.60
2017-10-22T03:32:08.957Z,10.70
2017-10-22T03:34:37.265Z,10.60
2017-10-22T03:37:04.774Z,10.60
2017-10-22T03:39:32.619Z,10.60
2017-10-22T03:42:00.199Z,10.60
2017-10-22T03:44:27.721Z,10.60
2017-10-22T03:46:55.367Z,10.60
2017-10-22T03:49:23.673Z,10.70
2017-10-22T03:51:51.407Z,10.70
2017-10-22T03:54:19.732Z,10.70
2017-10-22T03:56:47.287Z,10.70
2017-10-22T03:59:14.921Z,10.70
2017-10-22T04:01:42.557Z,10.80
2017-10-22T04:04:10.230Z,10.80
2017-10-22T04:06:38.512Z,10.70
2017-10-22T04:09:06.826Z,10.70
2017-10-22T04:11:34.402Z,10.60
2017-10-22T04:14:02.051Z,10.60
2017-10-22T04:16:29.585Z,10.70
2017-10-22T04:18:57.195Z,10.70
2017-10-22T04:21:24.703Z,10.70
2017-10-22T04:23:52.229Z,10.70
2017-10-22T04:26:19.846Z,10.70
2017-10-22T04:28:47.354Z,10.70
2017-10-22T04:31:15.118Z,10.60
2017-10-22T04:33:42.656Z,10.60
2017-10-22T04:36:10.160Z,10.60
2017-10-22T04:38:38.511Z,10.60
2017-10-22T04:41:06.044Z,10.60
2017-10-22T04:43:33.686Z,10.60
2017-10-22T04:46:01.205Z,10.50
2017-10-22T04:48:28.746Z,10.60
2017-10-22T04:50:56.480Z,10.50
2017-10-22T04:53:23.989Z,10.50
2017-10-22T04:55:51.535Z,10.60
2017-10-22T04:58:19.045Z,10.50
2017-10-22T05:00:47.073Z,10.40
2017-10-22T05:03:14.796Z,10.40
2017-10-22T05:05:42.300Z,10.40
2017-10-22T05:08:09.805Z,10.30
2017-10-22T05:10:37.333Z,10.30
2017-10-22T05:13:04.839Z,10.30
2017-10-22T05:15:32.342Z,10.20
2017-10-22T05:17:59.874Z,10.20
2017-10-22T05:20:27.384Z,10.20
2017-10-22T05:22:54.895Z,10.20
2017-10-22T05:25:22.437Z,10.20
2017-10-22T05:27:49.937Z,10.20
2017-10-22T05:30:17.437Z,10.10
2017-10-22T05:32:44.969Z,10.20
2017-10-22T05:35:13.245Z,10.20
2017-10-22T05:37:41.517Z,10.30
2017-10-22T05:40:09.820Z,10.20
2017-10-22T05:42:37.317Z,10.20
2017-10-22T05:45:04.824Z,10.20
2017-10-22T05:47:33.133Z,10.20
2017-10-22T05:50:00.645Z,10.20
2017-10-22T05:52:28.150Z,10.20
2017-10-22T05:54:55.689Z,10.20
2017-10-22T05:57:23.225Z,10.20
2017-10-22T05:59:51.492Z,10.20
2017-10-22T06:02:19.023Z,10.20
2017-10-22T06:04:46.557Z,10.10
2017-10-22T06:07:14.064Z,10.10
2017-10-22T06:09:42.339Z,10.00
2017-10-22T06:12:09.869Z,10.00
2017-10-22T06:14:37.382Z,10.00
2017-10-22T06:17:04.924Z,10.00
2017-10-22T06:19:32.442Z,10.00
2017-10-22T06:21:59.940Z,10.00
2017-10-22T06:24:27.489Z,10.00
2017-10-22T06:26:54.988Z,10.00
2017-10-22T06:29:23.265Z,10.00
2017-10-22T06:31:51.571Z,10.00
2017-10-22T06:34:19.080Z,10.00
2017-10-22T06:36:46.591Z,10.00
2017-10-22T06:39:14.144Z,10.00
2017-10-22T06:41:41.651Z,10.00
2017-10-22T06:44:09.165Z,10.10
2017-10-22T06:46:36.716Z,10.10
2017-10-22T06:49:04.233Z,10.10
2017-10-22T06:51:31.746Z,10.10
2017-10-22T06:53:59.308Z,10.10
2017-10-22T06:56:26.813Z,10.20
2017-10-22T06:58:54.533Z,10.10
2017-10-22T07:01:22.065Z,10.10
2017-10-22T07:03:50.341Z,10.00
2017-10-22T07:06:18.657Z,10.00
2017-10-22T07:08:46.160Z,10.00
2017-10-22T07:11:13.676Z,10.10
2017-10-22T07:13:41.218Z,10.10
2017-10-22T07:16:08.736Z,10.20
2017-10-22T07:18:36.265Z,10.30
2017-10-22T07:21:03.829Z,10.30
2017-10-22T07:23:31.338Z,10.40
2017-10-22T07:25:58.839Z,10.50
2017-10-22T07:28:26.379Z,10.50
2017-10-22T07:30:53.900Z,10.60
2017-10-22T07:33:22.182Z,11.10
2017-10-22T07:35:51.368Z,11.40
2017-10-22T07:38:18.880Z,11.40
2017-10-22T07:40:46.384Z,11.40
2017-10-22T07:43:13.924Z,11.50
2017-10-22T07:45:41.428Z,11.60
2017-10-22T07:48:09.705Z,11.90
2017-10-22T07:50:37.248Z,11.90
2017-10-22T07:53:06.245Z,12.40
2017-10-22T07:55:33.753Z,12.40
2017-10-22T07:58:01.280Z,12.50
2017-10-22T08:00:29.554Z,12.80
2017-10-22T08:02:57.826Z,13.00
2017-10-22T08:05:26.134Z,13.10
2017-10-22T08:07:53.643Z,13.00
2017-10-22T08:10:21.148Z,13.60
2017-10-22T08:12:48.688Z,13.90
2017-10-22T08:15:16.958Z,14.90
2017-10-22T08:17:45.237Z,14.70
2017-10-22T08:20:13.546Z,14.60
2017-10-22T09:04:51.894Z,11.60
2017-10-22T09:07:19.414Z,11.60
2017-10-22T09:09:46.916Z,11.60
2017-10-22T09:12:14.457Z,11.60
2017-10-22T09:14:41.966Z,11.60
2017-10-22T09:17:10.266Z,11.70
2017-10-22T09:19:37.778Z,11.70
2017-10-22T09:22:05.311Z,11.70
2017-10-22T09:24:32.874Z,11.70
2017-10-22T09:27:00.374Z,11.60
2017-10-22T09:29:27.907Z,11.60
2017-10-22T09:31:56.209Z,11.70
2017-10-22T09:34:24.473Z,11.80
2017-10-22T09:36:51.978Z,11.80
2017-10-22T09:39:19.613Z,11.90
2017-10-22T09:41:47.894Z,11.80
2017-10-22T09:44:16.160Z,11.80
2017-10-22T09:46:44.469Z,11.80
2017-10-22T09:49:11.980Z,11.80
2017-10-22T09:51:39.916Z,11.90
2017-10-22T09:54:07.447Z,12.00
2017-10-22T09:56:34.982Z,12.20
2017-10-22T09:59:02.492Z,12.10
2017-10-22T10:01:30.059Z,12.20
2017-10-22T10:03:57.583Z,12.20
2017-10-22T10:06:25.096Z,12.30
2017-10-22T10:08:52.633Z,12.20
2017-10-22T10:11:20.136Z,12.20
2017-10-22T10:13:47.686Z,12.10
2017-10-22T10:16:15.185Z,12.00
2017-10-22T10:18:42.700Z,12.10
2017-10-22T10:21:10.237Z,12.10
2017-10-22T10:23:38.531Z,12.00
2017-10-22T10:26:06.038Z,12.00
2017-10-22T10:28:33.582Z,12.00
2017-10-22T10:31:01.093Z,12.00
2017-10-22T10:33:28.600Z,12.10
2017-10-22T10:35:56.915Z,12.10
2017-10-22T10:38:24.421Z,12.10
2017-10-22T10:40:51.930Z,12.10
2017-10-22T10:43:19.469Z,12.10
2017-10-22T10:45:47.005Z,12.10
2017-10-22T10:48:15.306Z,12.20
2017-10-22T10:50:42.817Z,12.20
2017-10-22T10:53:10.327Z,12.30
2017-10-22T10:55:37.878Z,12.20
2017-10-22T10:58:06.153Z,12.70
2017-10-22T11:00:34.425Z,12.80
2017-10-22T11:03:01.953Z,12.70
2017-10-22T11:05:29.458Z,12.60
2017-10-22T11:07:56.980Z,12.70
2017-10-22T11:10:24.516Z,12.80
2017-10-22T11:12:52.049Z,12.80
2017-10-22T11:15:19.552Z,12.70
2017-10-22T11:17:47.056Z,12.70
2017-10-22T11:20:14.584Z,12.50
2017-10-22T11:22:42.081Z,12.40
2017-10-22T11:25:09.585Z,12.40
2017-10-22T11:27:37.113Z,12.40
2017-10-22T11:30:04.638Z,12.40
2017-10-22T11:32:32.929Z,12.20
2017-10-22T11:35:00.461Z,12.20
2017-10-22T11:37:28.153Z,12.20
2017-10-22T11:39:55.656Z,12.20
2017-10-22T11:42:23.182Z,12.10
2017-10-22T11:44:50.689Z,12.10
2017-10-22T11:47:18.205Z,12.00
2017-10-22T11:49:45.741Z,12.00
2017-10-22T11:52:14.049Z,12.00
2017-10-22T11:54:41.544Z,12.00
2017-10-22T11:57:09.068Z,12.00
2017-10-22T11:59:36.583Z,12.00
2017-10-22T12:02:04.870Z,12.00
2017-10-22T12:04:32.428Z,11.90
2017-10-22T12:06:59.945Z,12.00
2017-10-22T12:09:27.458Z,12.00
2017-10-22T12:11:55.748Z,12.00
2017-10-22T12:14:23.252Z,12.00
2017-10-22T12:16:50.765Z,12.00
2017-10-22T12:19:18.295Z,12.00
2017-10-22T12:21:46.567Z,12.00
2017-10-22T12:24:14.066Z,12.00
2017-10-22T12:26:41.597Z,12.10
2017-10-22T12:29:09.104Z,12.30
2017-10-22T12:31:36.618Z,12.50
2017-10-22T12:34:04.926Z,12.70
2017-10-22T12:36:32.430Z,12.70
2017-10-22T12:38:59.929Z,12.90
2017-10-22T12:41:27.461Z,12.90
2017-10-22T12:43:54.970Z,12.70
2017-10-22T12:46:22.486Z,13.00
2017-10-22T12:48:50.026Z,13.00
2017-10-22T12:51:17.529Z,13.00
2017-10-22T12:53:45.041Z,12.90
2017-10-22T12:56:12.577Z,13.00
2017-10-22T12:58:40.090Z,13.10
2017-10-22T13:01:08.371Z,13.10
2017-10-22T13:03:35.905Z,13.10
2017-10-22T13:06:03.413Z,13.40
2017-10-22T13:08:30.921Z,13.80
2017-10-22T13:10:58.454Z,14.00
2017-10-22T13:13:25.979Z,13.60
2017-10-22T13:15:53.501Z,13.50
2017-10-22T13:18:21.052Z,13.30
2017-10-22T13:20:48.557Z,13.10
2017-10-22T13:23:16.061Z,13.00
2017-10-22T13:25:43.593Z,13.00
2017-10-22T13:28:11.089Z,13.00
2017-10-22T13:30:38.588Z,12.90
2017-10-22T13:33:06.872Z,12.80
2017-10-22T13:35:34.365Z,12.70
2017-10-22T13:38:01.858Z,12.70
2017-10-22T13:40:29.394Z,12.60
2017-10-22T13:42:56.893Z,12.60
2017-10-22T13:45:25.834Z,12.70
2017-10-22T13:47:53.374Z,12.60
2017-10-22T13:50:20.906Z,12.70
2017-10-22T13:52:49.197Z,12.70
2017-10-22T13:55:16.729Z,12.60
2017-10-22T13:57:44.255Z,12.60
2017-10-22T14:00:11.760Z,12.70
2017-10-22T14:02:40.061Z,13.30
2017-10-22T14:05:07.578Z,13.30
2017-10-22T14:07:35.089Z,13.30
2017-10-22T14:10:02.638Z,13.30
2017-10-22T14:12:30.158Z,13.40
2017-10-22T14:14:57.672Z,13.40
2017-10-22T14:17:25.202Z,13.40
2017-10-22T14:19:53.486Z,13.70
2017-10-22T14:22:21.028Z,13.70
2017-10-22T14:24:48.577Z,13.80
2017-10-22T14:27:16.853Z,14.00
2017-10-22T14:29:44.362Z,14.00
2017-10-22T14:32:11.899Z,13.90
2017-10-22T14:34:39.397Z,13.80
2017-10-22T14:37:06.902Z,13.90
2017-10-22T14:39:35.204Z,13.30
2017-10-22T14:42:02.721Z,13.20
2017-10-22T14:44:30.232Z,13.20
2017-10-22T14:46:57.760Z,13.40
2017-10-22T14:49:26.057Z,13.60
2017-10-22T14:51:53.565Z,13.60
2017-10-22T14:54:21.087Z,13.50
2017-10-22T14:56:48.624Z,13.60
2017-10-22T14:59:16.163Z,13.40
2017-10-22T15:01:43.662Z,13.20
2017-10-22T15:04:11.208Z,13.10
2017-10-22T15:06:38.717Z,13.00
2017-10-22T15:09:06.221Z,12.90
2017-10-22T15:11:34.523Z,12.70
2017-10-22T15:14:02.033Z,12.70
2017-10-22T15:16:29.545Z,12.60
2017-10-22T15:18:57.077Z,12.30
2017-10-22T15:21:25.341Z,12.10
2017-10-22T15:23:53.621Z,12.20
2017-10-22T15:26:21.177Z,12.10
2017-10-22T15:28:49.448Z,12.20
2017-10-22T15:31:16.972Z,12.20
2017-10-22T15:33:44.511Z,12.20
2017-10-22T15:36:12.030Z,12.20
2017-10-22T15:38:40.301Z,12.10
2017-10-22T15:41:07.838Z,12.10
2017-10-22T15:43:35.860Z,12.00
2017-10-22T15:46:03.597Z,11.90
2017-10-22T15:48:34.688Z,11.70
2017-10-22T15:51:03.892Z,11.70
2017-10-22T15:53:33.058Z,11.70
2017-10-22T15:56:00.675Z,11.60
2017-10-22T15:58:28.190Z,11.60
2017-10-22T16:00:55.725Z,11.50
2017-10-22T16:03:24.032Z,11.40
2017-10-22T16:05:51.566Z,11.40
2017-10-22T16:08:19.076Z,11.40
2017-10-22T16:10:46.636Z,11.40
2017-10-22T16:13:14.145Z,11.40
2017-10-22T16:15:42.426Z,11.30
2017-10-22T16:18:09.960Z,11.30
2017-10-22T16:20:37.453Z,11.20
2017-10-22T16:23:05.718Z,10.40
2017-10-22T16:25:34.021Z,10.40
2017-10-22T16:28:01.522Z,10.40
2017-10-22T16:30:29.021Z,10.30
2017-10-22T16:32:56.555Z,10.30
2017-10-22T16:35:24.059Z,10.40
2017-10-22T16:37:51.574Z,10.30
2017-10-22T16:40:19.113Z,10.30
2017-10-22T16:42:46.809Z,10.30
2017-10-22T16:45:15.083Z,10.30
2017-10-22T16:47:43.394Z,10.20
2017-10-22T16:50:10.926Z,10.20
2017-10-22T16:52:38.428Z,10.20
2017-10-22T16:55:05.965Z,10.20
2017-10-22T16:57:33.487Z,10.10
2017-10-22T17:00:01.010Z,10.10
2017-10-22T17:02:28.548Z,10.10
2017-10-22T17:04:56.053Z,10.10
2017-10-22T17:07:23.569Z,10.10
2017-10-22T17:09:51.098Z,10.10
2017-10-22T17:12:19.405Z,10.10
2017-10-22T17:14:46.922Z,10.00
2017-10-22T17:17:14.463Z,10.00
2017-10-22T17:19:42.737Z,10.00
2017-10-22T17:22:10.248Z,9.90
2017-10-22T17:24:38.555Z,9.90
2017-10-22T17:27:06.082Z,9.90
2017-10-22T17:29:33.602Z,9.90
2017-10-22T17:32:01.175Z,9.90
2017-10-22T17:34:28.680Z,9.90
2017-10-22T17:36:56.190Z,9.90
2017-10-22T17:39:23.721Z,9.80
2017-10-22T17:41:51.218Z,9.80
2017-10-22T17:44:18.724Z,9.90
2017-10-22T17:46:46.308Z,9.90
2017-10-22T17:49:13.831Z,9.80
2017-10-22T17:51:41.372Z,9.80
2017-10-22T17:54:09.818Z,9.70
2017-10-22T17:56:37.429Z,9.70
2017-10-22T17:59:05.051Z,9.60
2017-10-22T18:01:32.597Z,9.60
2017-10-22T18:04:00.140Z,9.60
2017-10-22T18:06:27.712Z,9.60
2017-10-22T18:08:55.381Z,9.60
2017-10-22T18:11:22.959Z,9.60
2017-10-22T18:13:50.955Z,9.60
2017-10-22T18:16:18.714Z,9.60
2017-10-22T18:18:46.410Z,9.60
2017-10-22T18:21:14.827Z,9.60
2017-10-22T18:23:42.547Z,9.60
2017-10-22T18:26:10.181Z,9.60
2017-10-22T18:28:37.754Z,9.60
2017-10-22T18:31:06.122Z,9.50
2017-10-22T18:33:34.723Z,9.50
2017-10-22T18:36:02.415Z,9.40
2017-10-22T18:38:30.241Z,9.50
2017-10-22T18:40:57.862Z,9.50
2017-10-22T18:43:25.499Z,9.50
2017-10-22T18:45:54.180Z,9.50
2017-10-22T18:48:22.053Z,9.50
2017-10-22T18:50:49.925Z,9.50
2017-10-22T18:53:17.968Z,9.50
2017-10-22T18:55:46.059Z,9.50
2017-10-22T18:58:14.097Z,9.60
2017-10-22T19:00:42.118Z,9.60
2017-10-22T19:03:09.894Z,9.60
2017-10-22T19:05:37.661Z,9.60
2017-10-22T19:08:05.541Z,9.60
2017-10-22T19:10:33.095Z,9.50
2017-10-22T19:13:00.980Z,9.50
2017-10-22T19:15:29.444Z,9.50
2017-10-22T19:17:57.182Z,9.50
2017-10-22T19:20:24.958Z,9.50
2017-10-22T19:22:53.955Z,9.60
2017-10-22T19:25:21.595Z,9.60
2017-10-22T19:27:49.528Z,9.50
2017-10-22T19:30:17.308Z,9.40
2017-10-22T19:32:45.183Z,9.50
2017-10-22T19:35:13.283Z,9.40
2017-10-22T19:37:41.089Z,9.40
2017-10-22T19:40:09.833Z,9.40
2017-10-22T19:42:37.624Z,9.40
2017-10-22T19:45:05.556Z,9.40
2017-10-22T19:47:33.208Z,9.40
2017-10-22T19:50:01.898Z,9.40
2017-10-22T19:52:29.533Z,9.40
2017-10-22T19:54:57.990Z,9.40
2017-10-22T19:57:25.623Z,9.40
2017-10-22T19:59:53.313Z,9.40
2017-10-22T20:02:21.155Z,9.30
2017-10-22T20:04:48.790Z,9.30
2017-10-22T20:07:16.304Z,9.30
2017-10-22T20:09:43.809Z,9.30
2017-10-22T20:12:11.351Z,9.30
2017-10-22T20:14:39.642Z,9.30
2017-10-22T20:17:07.919Z,9.30
2017-10-22T20:19:36.250Z,9.30
2017-10-22T20:22:03.754Z,9.30
2017-10-22T20:24:31.478Z,9.30
2017-10-22T20:26:59.020Z,9.30
2017-10-22T20:29:26.578Z,9.20
2017-10-22T20:31:54.141Z,9.20
2017-10-22T20:34:21.732Z,9.20
2017-10-22T20:36:49.376Z,9.20
2017-10-22T20:39:17.148Z,9.20
2017-10-22T20:41:44.712Z,9.20
2017-10-22T20:44:12.274Z,9.10
2017-10-22T20:46:39.973Z,9.10
2017-10-22T20:49:08.409Z,9.10
2017-10-22T20:51:35.972Z,9.10
2017-10-22T20:54:03.561Z,9.10
2017-10-22T20:56:31.060Z,9.10
2017-10-22T20:58:58.697Z,9.10
2017-10-22T21:01:26.225Z,9.20
2017-10-22T21:03:53.788Z,9.20
2017-10-22T21:06:22.367Z,9.20
2017-10-22T21:08:49.874Z,9.10
2017-10-22T21:11:17.413Z,9.20
2017-10-22T21:13:45.732Z,9.20
2017-10-22T21:16:13.345Z,9.20
2017-10-22T21:18:40.855Z,9.10
2017-10-22T21:21:08.398Z,9.20
2017-10-22T21:23:35.900Z,9.20
2017-10-22T21:26:03.437Z,9.20
2017-10-22T21:28:31.840Z,9.20
2017-10-22T21:30:59.343Z,9.20
2017-10-22T21:33:26.844Z,9.20
2017-10-22T21:35:54.380Z,9.20
2017-10-22T21:38:21.957Z,9.20
2017-10-22T21:40:49.461Z,9.20
2017-10-22T21:43:16.999Z,9.20
2017-10-22T21:45:44.508Z,9.20
2017-10-22T21:48:12.024Z,9.20
2017-10-22T21:50:39.575Z,9.20
2017-10-22T21:53:07.069Z,9.30
2017-10-22T21:55:34.585Z,9.20
2017-10-22T21:58:02.888Z,9.20
2017-10-22T22:00:30.395Z,9.20
2017-10-22T22:02:57.906Z,9.30
2017-10-22T22:05:25.467Z,9.30
2017-10-22T22:07:52.961Z,9.30
2017-10-22T22:10:20.463Z,9.30
2017-10-22T22:12:48.018Z,9.30
2017-10-22T22:15:15.528Z,9.30
2017-10-22T22:17:43.054Z,9.30
2017-10-22T22:20:10.584Z,9.30
2017-10-22T22:22:38.128Z,9.30
2017-10-22T22:25:05.691Z,9.30
2017-10-22T22:27:33.205Z,9.30
2017-10-22T22:30:00.701Z,9.30
2017-10-22T22:32:28.229Z,9.30
2017-10-22T22:34:55.748Z,9.30
2017-10-22T22:37:23.243Z,9.30
2017-10-22T22:39:50.773Z,9.30
2017-10-22T22:42:19.093Z,9.30
2017-10-22T22:44:46.596Z,9.30
2017-10-22T22:47:14.133Z,9.20
2017-10-22T22:49:41.636Z,9.20
2017-10-22T22:52:09.132Z,9.20
2017-10-22T22:54:36.721Z,9.20
2017-10-22T22:57:04.221Z,9.20
2017-10-22T22:59:33.260Z,9.20
2017-10-22T23:02:00.798Z,9.20
2017-10-22T23:04:28.321Z,9.20
2017-10-22T23:06:55.832Z,9.20
2017-10-22T23:09:24.129Z,9.20
2017-10-22T23:11:51.646Z,9.20
2017-10-22T23:14:19.926Z,9.20
2017-10-22T23:16:47.474Z,9.20
2017-10-22T23:19:14.972Z,9.20
2017-10-22T23:21:43.235Z,9.20
2017-10-22T23:24:11.556Z,9.20
2017-10-22T23:26:39.057Z,9.20
2017-10-22T23:29:06.565Z,9.20
2017-10-22T23:31:34.112Z,9.20
2017-10-22T23:34:01.604Z,9.20
2017-10-22T23:36:29.620Z,9.20
2017-10-22T23:38:57.930Z,9.10
2017-10-22T23:41:25.446Z,9.10
2017-10-22T23:43:53.717Z,9.10
2017-10-22T23:46:21.513Z,9.10
2017-10-22T23:48:49.789Z,9.10
2017-10-22T23:51:17.313Z,9.10
2017-10-22T23:53:44.842Z,9.10
2017-10-22T23:56:12.345Z,9.10
2017-10-22T23:58:39.890Z,9.10
